sensor_id;sensor_type;location;lat;lon;timestamp;P1;durP1;ratioP1;P2;durP2;ratioP2
18867;SDS011;9563;49.240;9.088;2024-01-30T05:00:31;16.87;;;7.00;;
18867;SDS011;9563;49.240;9.088;2024-01-30T05:02:58;12.17;;;7.07;;
18867;SDS011;9563;49.240;9.088;2024-01-30T05:05:25;11.37;;;7.07;;
18867;SDS011;9563;49.240;9.088;2024-01-30T05:07:52;15.93;;;7.83;;
18867;SDS011;9563;49.240;9.088;2024-01-30T05:10:19;13.10;;;7.90;;
18867;SDS011;9563;49.240;9.088;2024-01-30T05:12:46;13.90;;;7.30;;
18867;SDS011;9563;49.240;9.088;2024-01-30T05:15:13;15.83;;;7.53;;
18867;SDS011;9563;49.240;9.088;2024-01-30T05:17:41;17.17;;;8.43;;
18867;SDS011;9563;49.240;9.088;2024-01-30T05:20:09;18.70;;;8.07;;
18867;SDS011;9563;49.240;9.088;2024-01-30T05:22:37;27.97;;;11.30;;
18867;SDS011;9563;49.240;9.088;2024-01-30T05:25:09;26.70;;;11.77;;
18867;SDS011;9563;49.240;9.088;2024-01-30T05:27:36;27.83;;;11.80;;
18867;SDS011;9563;49.240;9.088;2024-01-30T05:30:04;22.73;;;9.97;;
18867;SDS011;9563;49.240;9.088;2024-01-30T05:32:32;17.90;;;9.07;;
18867;SDS011;9563;49.240;9.088;2024-01-30T05:35:00;17.57;;;8.90;;
18867;SDS011;9563;49.240;9.088;2024-01-30T05:37:27;14.93;;;8.23;;
18867;SDS011;9563;49.240;9.088;2024-01-30T05:39:54;15.00;;;7.97;;
18867;SDS011;9563;49.240;9.088;2024-01-30T05:42:21;14.43;;;8.17;;
18867;SDS011;9563;49.240;9.088;2024-01-30T05:44:47;12.67;;;7.50;;
18867;SDS011;9563;49.240;9.088;2024-01-30T05:47:14;13.27;;;8.03;;
18867;SDS011;9563;49.240;9.088;2024-01-30T05:49:41;11.73;;;7.10;;
18867;SDS011;9563;49.240;9.088;2024-01-30T05:52:09;19.30;;;7.37;;
18867;SDS011;9563;49.240;9.088;2024-01-30T05:54:36;14.40;;;8.03;;
18867;SDS011;9563;49.240;9.088;2024-01-30T05:57:04;12.07;;;7.10;;
18867;SDS011;9563;49.240;9.088;2024-01-30T05:59:31;15.20;;;8.17;;
18867;SDS011;9563;49.240;9.088;2024-01-30T06:01:58;15.40;;;8.53;;
18867;SDS011;9563;49.240;9.088;2024-01-30T06:04:25;16.20;;;8.47;;
18867;SDS011;9563;49.240;9.088;2024-01-30T06:06:52;20.63;;;9.23;;
18867;SDS011;9563;49.240;9.088;2024-01-30T06:09:20;14.60;;;8.37;;
18867;SDS011;9563;49.240;9.088;2024-01-30T06:11:46;15.90;;;8.40;;
18867;SDS011;9563;49.240;9.088;2024-01-30T06:14:13;14.70;;;8.37;;
18867;SDS011;9563;49.240;9.088;2024-01-30T06:16:40;19.40;;;9.73;;
18867;SDS011;9563;49.240;9.088;2024-01-30T06:19:07;24.00;;;11.33;;
18867;SDS011;9563;49.240;9.088;2024-01-30T06:21:34;28.27;;;12.37;;
18867;SDS011;9563;49.240;9.088;2024-01-30T06:24:03;21.27;;;10.50;;
18867;SDS011;9563;49.240;9.088;2024-01-30T06:26:31;28.20;;;12.20;;
18867;SDS011;9563;49.240;9.088;2024-01-30T06:28:58;34.77;;;12.93;;
18867;SDS011;9563;49.240;9.088;2024-01-30T06:31:25;30.70;;;11.93;;
18867;SDS011;9563;49.240;9.088;2024-01-30T06:33:52;31.90;;;14.17;;
18867;SDS011;9563;49.240;9.088;2024-01-30T06:36:19;31.40;;;12.53;;
18867;SDS011;9563;49.240;9.088;2024-01-30T06:38:46;31.57;;;12.87;;
18867;SDS011;9563;49.240;9.088;2024-01-30T06:41:13;25.57;;;12.00;;
18867;SDS011;9563;49.240;9.088;2024-01-30T06:43:41;26.03;;;12.93;;
18867;SDS011;9563;49.240;9.088;2024-01-30T06:46:10;33.13;;;13.47;;
18867;SDS011;9563;49.240;9.088;2024-01-30T06:48:37;29.43;;;12.97;;
18867;SDS011;9563;49.240;9.088;2024-01-30T06:51:05;26.93;;;10.43;;
18867;SDS011;9563;49.240;9.088;2024-01-30T06:53:32;19.47;;;10.07;;
18867;SDS011;9563;49.240;9.088;2024-01-30T06:55:59;18.67;;;9.63;;
18867;SDS011;9563;49.240;9.088;2024-01-30T06:58:26;16.70;;;8.60;;
18867;SDS011;9563;49.240;9.088;2024-01-30T07:00:54;14.80;;;8.30;;
18867;SDS011;9563;49.240;9.088;2024-01-30T07:03:21;14.93;;;8.60;;
18867;SDS011;9563;49.240;9.088;2024-01-30T07:05:48;13.93;;;8.97;;
18867;SDS011;9563;49.240;9.088;2024-01-30T07:08:15;15.20;;;8.10;;
18867;SDS011;9563;49.240;9.088;2024-01-30T07:10:42;16.90;;;9.07;;
18867;SDS011;9563;49.240;9.088;2024-01-30T07:13:09;19.63;;;9.10;;
18867;SDS011;9563;49.240;9.088;2024-01-30T07:15:36;15.80;;;9.37;;
18867;SDS011;9563;49.240;9.088;2024-01-30T07:18:05;18.33;;;9.70;;
18867;SDS011;9563;49.240;9.088;2024-01-30T07:20:32;21.43;;;10.20;;
18867;SDS011;9563;49.240;9.088;2024-01-30T07:23:00;16.20;;;8.97;;
18867;SDS011;9563;49.240;9.088;2024-01-30T07:25:28;16.03;;;8.67;;
18867;SDS011;9563;49.240;9.088;2024-01-30T07:27:55;16.03;;;9.13;;
18867;SDS011;9563;49.240;9.088;2024-01-30T07:30:22;17.63;;;8.47;;
18867;SDS011;9563;49.240;9.088;2024-01-30T07:32:49;14.67;;;8.30;;
18867;SDS011;9563;49.240;9.088;2024-01-30T07:35:17;19.50;;;8.80;;
18867;SDS011;9563;49.240;9.088;2024-01-30T07:37:44;14.03;;;8.37;;
18867;SDS011;9563;49.240;9.088;2024-01-30T07:40:11;15.40;;;9.10;;
18867;SDS011;9563;49.240;9.088;2024-01-30T07:42:38;24.97;;;11.60;;
18867;SDS011;9563;49.240;9.088;2024-01-30T07:45:06;23.03;;;11.80;;
18867;SDS011;9563;49.240;9.088;2024-01-30T07:47:35;17.37;;;8.80;;
18867;SDS011;9563;49.240;9.088;2024-01-30T07:50:02;16.67;;;8.47;;
18867;SDS011;9563;49.240;9.088;2024-01-30T07:52:30;21.13;;;10.53;;
18867;SDS011;9563;49.240;9.088;2024-01-30T07:54:57;19.60;;;9.67;;
18867;SDS011;9563;49.240;9.088;2024-01-30T07:57:24;18.47;;;9.57;;
18867;SDS011;9563;49.240;9.088;2024-01-30T07:59:51;19.47;;;9.20;;
18867;SDS011;9563;49.240;9.088;2024-01-30T08:02:18;16.63;;;9.53;;
18867;SDS011;9563;49.240;9.088;2024-01-30T08:04:45;17.43;;;9.67;;
18867;SDS011;9563;49.240;9.088;2024-01-30T08:07:13;23.87;;;11.53;;
18867;SDS011;9563;49.240;9.088;2024-01-30T08:09:44;20.70;;;11.00;;
18867;SDS011;9563;49.240;9.088;2024-01-30T08:12:10;17.27;;;9.90;;
18867;SDS011;9563;49.240;9.088;2024-01-30T08:14:38;20.83;;;10.93;;
18867;SDS011;9563;49.240;9.088;2024-01-30T08:17:06;20.23;;;10.13;;
18867;SDS011;9563;49.240;9.088;2024-01-30T08:19:33;18.20;;;10.23;;
18867;SDS011;9563;49.240;9.088;2024-01-30T08:22:00;18.47;;;10.43;;
18867;SDS011;9563;49.240;9.088;2024-01-30T08:24:27;18.00;;;10.13;;
18867;SDS011;9563;49.240;9.088;2024-01-30T08:26:55;20.27;;;9.70;;
18867;SDS011;9563;49.240;9.088;2024-01-30T08:29:23;17.63;;;9.87;;
18867;SDS011;9563;49.240;9.088;2024-01-30T08:31:50;26.60;;;11.00;;
18867;SDS011;9563;49.240;9.088;2024-01-30T08:34:17;18.07;;;9.33;;
18867;SDS011;9563;49.240;9.088;2024-01-30T08:36:44;19.90;;;9.67;;
18867;SDS011;9563;49.240;9.088;2024-01-30T08:39:11;16.80;;;9.33;;
18867;SDS011;9563;49.240;9.088;2024-01-30T08:41:38;14.20;;;8.73;;
18867;SDS011;9563;49.240;9.088;2024-01-30T08:44:06;16.53;;;9.37;;
18867;SDS011;9563;49.240;9.088;2024-01-30T08:46:33;28.23;;;12.97;;
18867;SDS011;9563;49.240;9.088;2024-01-30T08:49:00;22.53;;;10.37;;
18867;SDS011;9563;49.240;9.088;2024-01-30T08:51:29;18.83;;;9.13;;
18867;SDS011;9563;49.240;9.088;2024-01-30T08:53:56;18.93;;;10.13;;
18867;SDS011;9563;49.240;9.088;2024-01-30T08:56:23;21.93;;;10.47;;
18867;SDS011;9563;49.240;9.088;2024-01-30T08:58:49;23.93;;;11.03;;
18867;SDS011;9563;49.240;9.088;2024-01-30T09:01:18;26.20;;;12.00;;
18867;SDS011;9563;49.240;9.088;2024-01-30T09:03:45;24.67;;;11.93;;
18867;SDS011;9563;49.240;9.088;2024-01-30T09:06:12;16.97;;;10.43;;
18867;SDS011;9563;49.240;9.088;2024-01-30T09:08:39;18.37;;;10.80;;
18867;SDS011;9563;49.240;9.088;2024-01-30T09:11:08;18.20;;;10.13;;
18867;SDS011;9563;49.240;9.088;2024-01-30T09:13:35;17.67;;;10.33;;
18867;SDS011;9563;49.240;9.088;2024-01-30T09:16:02;19.13;;;10.17;;
18867;SDS011;9563;49.240;9.088;2024-01-30T09:18:31;14.60;;;9.00;;
18867;SDS011;9563;49.240;9.088;2024-01-30T09:20:58;16.47;;;9.07;;
18867;SDS011;9563;49.240;9.088;2024-01-30T09:23:26;16.90;;;9.03;;
18867;SDS011;9563;49.240;9.088;2024-01-30T09:25:55;13.90;;;8.87;;
18867;SDS011;9563;49.240;9.088;2024-01-30T09:28:22;20.20;;;10.20;;
18867;SDS011;9563;49.240;9.088;2024-01-30T09:30:49;17.27;;;8.97;;
18867;SDS011;9563;49.240;9.088;2024-01-30T09:33:16;14.90;;;9.20;;
18867;SDS011;9563;49.240;9.088;2024-01-30T09:35:44;20.10;;;9.43;;
18867;SDS011;9563;49.240;9.088;2024-01-30T09:38:11;15.47;;;8.90;;
18867;SDS011;9563;49.240;9.088;2024-01-30T09:40:38;17.47;;;9.10;;
18867;SDS011;9563;49.240;9.088;2024-01-30T09:43:06;18.73;;;9.43;;
18867;SDS011;9563;49.240;9.088;2024-01-30T09:45:34;18.67;;;9.10;;
18867;SDS011;9563;49.240;9.088;2024-01-30T09:48:01;16.47;;;9.27;;
18867;SDS011;9563;49.240;9.088;2024-01-30T09:50:29;19.23;;;10.23;;
18867;SDS011;9563;49.240;9.088;2024-01-30T09:52:57;16.00;;;9.87;;
18867;SDS011;9563;49.240;9.088;2024-01-30T09:55:25;16.00;;;9.07;;
18867;SDS011;9563;49.240;9.088;2024-01-30T09:57:53;25.30;;;9.67;;
18867;SDS011;9563;49.240;9.088;2024-01-30T10:00:20;15.37;;;9.17;;
18867;SDS011;9563;49.240;9.088;2024-01-30T10:02:52;14.33;;;8.97;;
18867;SDS011;9563;49.240;9.088;2024-01-30T10:05:19;14.30;;;8.37;;
18867;SDS011;9563;49.240;9.088;2024-01-30T10:07:50;15.43;;;7.90;;
18867;SDS011;9563;49.240;9.088;2024-01-30T10:10:20;18.03;;;9.67;;
18867;SDS011;9563;49.240;9.088;2024-01-30T10:12:48;14.73;;;8.83;;
18867;SDS011;9563;49.240;9.088;2024-01-30T10:15:15;22.10;;;10.97;;
18867;SDS011;9563;49.240;9.088;2024-01-30T10:17:44;17.07;;;10.20;;
18867;SDS011;9563;49.240;9.088;2024-01-30T10:20:12;18.00;;;9.77;;
18867;SDS011;9563;49.240;9.088;2024-01-30T10:22:39;15.50;;;10.17;;
18867;SDS011;9563;49.240;9.088;2024-01-30T10:25:07;14.53;;;9.00;;
18867;SDS011;9563;49.240;9.088;2024-01-30T10:27:39;18.30;;;10.00;;
18867;SDS011;9563;49.240;9.088;2024-01-30T10:30:06;20.13;;;9.87;;
18867;SDS011;9563;49.240;9.088;2024-01-30T10:32:34;16.70;;;9.87;;
18867;SDS011;9563;49.240;9.088;2024-01-30T10:35:01;17.40;;;9.90;;
18867;SDS011;9563;49.240;9.088;2024-01-30T10:37:28;14.40;;;9.30;;
18867;SDS011;9563;49.240;9.088;2024-01-30T10:39:58;18.13;;;9.40;;
18867;SDS011;9563;49.240;9.088;2024-01-30T10:42:31;15.60;;;9.53;;
18867;SDS011;9563;49.240;9.088;2024-01-30T10:45:02;18.57;;;10.30;;
18867;SDS011;9563;49.240;9.088;2024-01-30T10:47:33;27.83;;;14.20;;
18867;SDS011;9563;49.240;9.088;2024-01-30T10:50:02;25.47;;;12.93;;
18867;SDS011;9563;49.240;9.088;2024-01-30T10:52:30;22.20;;;11.70;;
18867;SDS011;9563;49.240;9.088;2024-01-30T10:54:58;21.80;;;11.40;;
18867;SDS011;9563;49.240;9.088;2024-01-30T10:57:26;23.57;;;11.80;;
18867;SDS011;9563;49.240;9.088;2024-01-30T10:59:55;17.30;;;10.13;;
18867;SDS011;9563;49.240;9.088;2024-01-30T11:02:25;17.33;;;9.83;;
18867;SDS011;9563;49.240;9.088;2024-01-30T11:04:54;20.60;;;11.00;;
18867;SDS011;9563;49.240;9.088;2024-01-30T11:07:23;14.40;;;8.77;;
18867;SDS011;9563;49.240;9.088;2024-01-30T11:09:51;16.53;;;7.87;;
18867;SDS011;9563;49.240;9.088;2024-01-30T11:12:22;19.13;;;9.53;;
18867;SDS011;9563;49.240;9.088;2024-01-30T11:14:50;17.17;;;9.50;;
18867;SDS011;9563;49.240;9.088;2024-01-30T11:17:40;16.43;;;9.73;;
18867;SDS011;9563;49.240;9.088;2024-01-30T11:20:11;16.30;;;8.33;;
18867;SDS011;9563;49.240;9.088;2024-01-30T11:22:41;14.93;;;8.37;;
18867;SDS011;9563;49.240;9.088;2024-01-30T11:25:11;14.10;;;7.93;;
18867;SDS011;9563;49.240;9.088;2024-01-30T11:27:38;14.80;;;7.93;;
18867;SDS011;9563;49.240;9.088;2024-01-30T11:30:07;12.93;;;7.83;;
18867;SDS011;9563;49.240;9.088;2024-01-30T11:32:34;17.33;;;8.37;;
18867;SDS011;9563;49.240;9.088;2024-01-30T11:35:04;12.03;;;6.93;;
18867;SDS011;9563;49.240;9.088;2024-01-30T11:37:35;15.97;;;8.70;;
18867;SDS011;9563;49.240;9.088;2024-01-30T11:40:04;14.50;;;7.53;;
18867;SDS011;9563;49.240;9.088;2024-01-30T11:42:32;16.60;;;8.03;;
18867;SDS011;9563;49.240;9.088;2024-01-30T11:45:00;13.60;;;7.87;;
18867;SDS011;9563;49.240;9.088;2024-01-30T11:47:28;13.27;;;7.67;;
18867;SDS011;9563;49.240;9.088;2024-01-30T11:49:55;16.37;;;8.23;;
18867;SDS011;9563;49.240;9.088;2024-01-30T11:52:24;16.57;;;8.07;;
18867;SDS011;9563;49.240;9.088;2024-01-30T11:54:51;14.13;;;8.03;;
18867;SDS011;9563;49.240;9.088;2024-01-30T11:57:18;19.20;;;8.50;;
18867;SDS011;9563;49.240;9.088;2024-01-30T11:59:45;16.27;;;8.57;;
18867;SDS011;9563;49.240;9.088;2024-01-30T12:02:15;15.83;;;8.07;;
18867;SDS011;9563;49.240;9.088;2024-01-30T12:04:42;15.73;;;7.17;;
18867;SDS011;9563;49.240;9.088;2024-01-30T12:07:09;13.93;;;7.50;;
18867;SDS011;9563;49.240;9.088;2024-01-30T12:09:38;14.30;;;7.70;;
18867;SDS011;9563;49.240;9.088;2024-01-30T12:12:06;17.77;;;9.00;;
18867;SDS011;9563;49.240;9.088;2024-01-30T12:14:37;14.97;;;7.93;;
18867;SDS011;9563;49.240;9.088;2024-01-30T12:17:04;17.93;;;8.60;;
18867;SDS011;9563;49.240;9.088;2024-01-30T12:19:32;14.80;;;7.27;;
18867;SDS011;9563;49.240;9.088;2024-01-30T12:21:59;11.37;;;7.30;;
18867;SDS011;9563;49.240;9.088;2024-01-30T12:24:26;18.07;;;8.07;;
18867;SDS011;9563;49.240;9.088;2024-01-30T12:26:58;16.10;;;7.57;;
18867;SDS011;9563;49.240;9.088;2024-01-30T12:29:25;17.43;;;8.17;;
18867;SDS011;9563;49.240;9.088;2024-01-30T12:31:52;13.03;;;7.57;;
18867;SDS011;9563;49.240;9.088;2024-01-30T12:34:20;14.97;;;7.80;;
18867;SDS011;9563;49.240;9.088;2024-01-30T12:36:46;19.43;;;8.70;;
18867;SDS011;9563;49.240;9.088;2024-01-30T12:39:14;15.40;;;8.07;;
18867;SDS011;9563;49.240;9.088;2024-01-30T12:41:41;13.17;;;7.50;;
18867;SDS011;9563;49.240;9.088;2024-01-30T12:44:10;13.60;;;7.67;;
18867;SDS011;9563;49.240;9.088;2024-01-30T12:46:37;19.57;;;8.53;;
18867;SDS011;9563;49.240;9.088;2024-01-30T12:49:05;13.17;;;7.83;;
18867;SDS011;9563;49.240;9.088;2024-01-30T12:51:33;21.93;;;8.70;;
18867;SDS011;9563;49.240;9.088;2024-01-30T12:54:04;14.53;;;8.07;;
18867;SDS011;9563;49.240;9.088;2024-01-30T12:56:32;13.00;;;7.87;;
18867;SDS011;9563;49.240;9.088;2024-01-30T12:58:59;15.47;;;8.70;;
18867;SDS011;9563;49.240;9.088;2024-01-30T13:01:28;16.27;;;8.27;;
18867;SDS011;9563;49.240;9.088;2024-01-30T13:03:55;19.57;;;8.70;;
18867;SDS011;9563;49.240;9.088;2024-01-30T13:06:23;14.83;;;8.23;;
18867;SDS011;9563;49.240;9.088;2024-01-30T13:08:50;14.37;;;7.87;;
18867;SDS011;9563;49.240;9.088;2024-01-30T13:11:17;14.17;;;8.73;;
18867;SDS011;9563;49.240;9.088;2024-01-30T13:13:44;12.83;;;8.13;;
18867;SDS011;9563;49.240;9.088;2024-01-30T13:16:11;16.77;;;8.70;;
18867;SDS011;9563;49.240;9.088;2024-01-30T13:18:39;17.47;;;8.67;;
18867;SDS011;9563;49.240;9.088;2024-01-30T13:21:06;21.13;;;8.83;;
18867;SDS011;9563;49.240;9.088;2024-01-30T13:23:33;16.07;;;8.77;;
18867;SDS011;9563;49.240;9.088;2024-01-30T13:26:00;18.38;;;9.68;;
18867;SDS011;9563;49.240;9.088;2024-01-30T13:28:27;16.10;;;9.07;;
18867;SDS011;9563;49.240;9.088;2024-01-30T13:30:54;15.07;;;8.87;;
18867;SDS011;9563;49.240;9.088;2024-01-30T13:33:21;17.17;;;9.60;;
18867;SDS011;9563;49.240;9.088;2024-01-30T13:35:49;16.87;;;10.00;;
18867;SDS011;9563;49.240;9.088;2024-01-30T13:38:16;16.67;;;9.07;;
18867;SDS011;9563;49.240;9.088;2024-01-30T13:40:43;16.27;;;8.47;;
18867;SDS011;9563;49.240;9.088;2024-01-30T13:43:10;19.87;;;9.43;;
18867;SDS011;9563;49.240;9.088;2024-01-30T13:45:37;13.35;;;8.80;;
18867;SDS011;9563;49.240;9.088;2024-01-30T13:48:04;16.57;;;9.63;;
18867;SDS011;9563;49.240;9.088;2024-01-30T13:50:32;16.10;;;9.03;;
18867;SDS011;9563;49.240;9.088;2024-01-30T13:53:01;17.73;;;9.63;;
18867;SDS011;9563;49.240;9.088;2024-01-30T13:55:29;14.17;;;8.10;;
18867;SDS011;9563;49.240;9.088;2024-01-30T13:57:56;16.10;;;8.63;;
18867;SDS011;9563;49.240;9.088;2024-01-30T14:00:23;14.63;;;9.10;;
18867;SDS011;9563;49.240;9.088;2024-01-30T14:02:51;15.20;;;8.93;;
18867;SDS011;9563;49.240;9.088;2024-01-30T14:05:19;17.27;;;8.77;;
18867;SDS011;9563;49.240;9.088;2024-01-30T14:07:47;16.67;;;9.40;;
18867;SDS011;9563;49.240;9.088;2024-01-30T14:10:16;13.75;;;8.52;;
18867;SDS011;9563;49.240;9.088;2024-01-30T14:12:43;14.50;;;8.87;;
18867;SDS011;9563;49.240;9.088;2024-01-30T14:15:11;15.83;;;9.07;;
18867;SDS011;9563;49.240;9.088;2024-01-30T14:17:40;17.40;;;9.57;;
18867;SDS011;9563;49.240;9.088;2024-01-30T14:20:07;15.57;;;8.70;;
18867;SDS011;9563;49.240;9.088;2024-01-30T14:22:35;15.93;;;9.80;;
18867;SDS011;9563;49.240;9.088;2024-01-30T14:25:03;23.77;;;10.30;;
18867;SDS011;9563;49.240;9.088;2024-01-30T14:27:32;18.05;;;9.38;;
18867;SDS011;9563;49.240;9.088;2024-01-30T14:29:58;18.20;;;8.90;;
18867;SDS011;9563;49.240;9.088;2024-01-30T14:32:25;15.03;;;9.53;;
18867;SDS011;9563;49.240;9.088;2024-01-30T14:34:52;19.13;;;9.05;;
18867;SDS011;9563;49.240;9.088;2024-01-30T14:37:19;21.80;;;10.18;;
18867;SDS011;9563;49.240;9.088;2024-01-30T14:39:47;13.80;;;8.93;;
18867;SDS011;9563;49.240;9.088;2024-01-30T14:42:14;19.17;;;9.90;;
18867;SDS011;9563;49.240;9.088;2024-01-30T14:44:42;12.85;;;8.65;;
18867;SDS011;9563;49.240;9.088;2024-01-30T14:47:09;16.10;;;8.90;;
18867;SDS011;9563;49.240;9.088;2024-01-30T14:49:38;20.63;;;9.67;;
18867;SDS011;9563;49.240;9.088;2024-01-30T14:52:05;22.33;;;9.55;;
18867;SDS011;9563;49.240;9.088;2024-01-30T14:54:33;19.00;;;9.30;;
18867;SDS011;9563;49.240;9.088;2024-01-30T14:57:00;20.13;;;10.27;;
18867;SDS011;9563;49.240;9.088;2024-01-30T14:59:27;15.27;;;9.87;;
18867;SDS011;9563;49.240;9.088;2024-01-30T15:01:55;19.50;;;10.73;;
18867;SDS011;9563;49.240;9.088;2024-01-30T15:04:22;16.97;;;9.20;;
18867;SDS011;9563;49.240;9.088;2024-01-30T15:06:50;20.30;;;9.70;;
18867;SDS011;9563;49.240;9.088;2024-01-30T15:09:16;18.77;;;9.20;;
18867;SDS011;9563;49.240;9.088;2024-01-30T15:11:43;17.67;;;9.60;;
18867;SDS011;9563;49.240;9.088;2024-01-30T15:14:11;25.27;;;12.60;;
18867;SDS011;9563;49.240;9.088;2024-01-30T15:16:38;19.17;;;11.53;;
18867;SDS011;9563;49.240;9.088;2024-01-30T15:19:07;19.50;;;10.83;;
18867;SDS011;9563;49.240;9.088;2024-01-30T15:21:34;22.50;;;11.13;;
18867;SDS011;9563;49.240;9.088;2024-01-30T15:24:01;20.50;;;11.63;;
18867;SDS011;9563;49.240;9.088;2024-01-30T15:26:29;23.77;;;11.43;;
18867;SDS011;9563;49.240;9.088;2024-01-30T15:28:56;26.07;;;12.00;;
18867;SDS011;9563;49.240;9.088;2024-01-30T15:31:23;20.33;;;11.87;;
18867;SDS011;9563;49.240;9.088;2024-01-30T15:33:50;24.13;;;12.27;;
18867;SDS011;9563;49.240;9.088;2024-01-30T15:36:18;23.80;;;12.43;;
18867;SDS011;9563;49.240;9.088;2024-01-30T15:38:45;25.93;;;14.07;;
18867;SDS011;9563;49.240;9.088;2024-01-30T15:41:12;22.17;;;12.93;;
18867;SDS011;9563;49.240;9.088;2024-01-30T15:43:39;25.77;;;12.43;;
18867;SDS011;9563;49.240;9.088;2024-01-30T15:46:09;25.00;;;13.60;;
18867;SDS011;9563;49.240;9.088;2024-01-30T15:48:36;28.97;;;12.93;;
18867;SDS011;9563;49.240;9.088;2024-01-30T15:51:03;21.97;;;12.13;;
18867;SDS011;9563;49.240;9.088;2024-01-30T15:53:31;31.77;;;14.80;;
18867;SDS011;9563;49.240;9.088;2024-01-30T15:55:58;36.87;;;17.40;;
18867;SDS011;9563;49.240;9.088;2024-01-30T15:58:25;38.23;;;17.67;;
18867;SDS011;9563;49.240;9.088;2024-01-30T16:00:52;32.27;;;14.60;;
18867;SDS011;9563;49.240;9.088;2024-01-30T16:03:19;28.70;;;14.27;;
18867;SDS011;9563;49.240;9.088;2024-01-30T16:05:46;24.90;;;12.40;;
18867;SDS011;9563;49.240;9.088;2024-01-30T16:08:13;22.80;;;12.57;;
18867;SDS011;9563;49.240;9.088;2024-01-30T16:10:41;25.50;;;12.33;;
18867;SDS011;9563;49.240;9.088;2024-01-30T16:13:09;21.20;;;12.23;;
18867;SDS011;9563;49.240;9.088;2024-01-30T16:15:36;23.60;;;11.67;;
18867;SDS011;9563;49.240;9.088;2024-01-30T16:18:04;23.20;;;11.93;;
18867;SDS011;9563;49.240;9.088;2024-01-30T16:20:32;22.20;;;12.53;;
18867;SDS011;9563;49.240;9.088;2024-01-30T16:22:59;20.40;;;11.33;;
18867;SDS011;9563;49.240;9.088;2024-01-30T16:25:25;20.17;;;11.67;;
18867;SDS011;9563;49.240;9.088;2024-01-30T16:27:54;19.80;;;12.00;;
18867;SDS011;9563;49.240;9.088;2024-01-30T16:30:21;20.33;;;11.33;;
18867;SDS011;9563;49.240;9.088;2024-01-30T16:32:48;18.87;;;10.83;;
18867;SDS011;9563;49.240;9.088;2024-01-30T16:35:16;23.10;;;12.90;;
18867;SDS011;9563;49.240;9.088;2024-01-30T16:37:43;26.17;;;12.67;;
18867;SDS011;9563;49.240;9.088;2024-01-30T16:40:10;24.83;;;12.77;;
18867;SDS011;9563;49.240;9.088;2024-01-30T16:42:38;23.05;;;13.05;;
18867;SDS011;9563;49.240;9.088;2024-01-30T16:45:06;33.07;;;15.00;;
18867;SDS011;9563;49.240;9.088;2024-01-30T16:47:33;26.37;;;14.70;;
18867;SDS011;9563;49.240;9.088;2024-01-30T16:50:00;30.10;;;14.47;;
18867;SDS011;9563;49.240;9.088;2024-01-30T16:52:27;24.03;;;12.23;;
18867;SDS011;9563;49.240;9.088;2024-01-30T16:54:54;24.33;;;13.00;;
18867;SDS011;9563;49.240;9.088;2024-01-30T16:57:21;22.80;;;12.83;;
18867;SDS011;9563;49.240;9.088;2024-01-30T16:59:48;24.30;;;13.23;;
18867;SDS011;9563;49.240;9.088;2024-01-30T17:02:17;25.27;;;13.77;;
18867;SDS011;9563;49.240;9.088;2024-01-30T17:04:43;25.00;;;13.10;;
18867;SDS011;9563;49.240;9.088;2024-01-30T17:07:10;31.97;;;13.17;;
18867;SDS011;9563;49.240;9.088;2024-01-30T17:09:37;24.60;;;14.90;;
18867;SDS011;9563;49.240;9.088;2024-01-30T17:12:05;29.20;;;16.20;;
18867;SDS011;9563;49.240;9.088;2024-01-30T17:14:32;30.33;;;14.13;;
18867;SDS011;9563;49.240;9.088;2024-01-30T17:17:03;29.33;;;14.33;;
18867;SDS011;9563;49.240;9.088;2024-01-30T17:19:32;24.57;;;13.17;;
18867;SDS011;9563;49.240;9.088;2024-01-30T17:21:59;27.40;;;12.87;;
18867;SDS011;9563;49.240;9.088;2024-01-30T17:24:27;27.47;;;12.73;;
18867;SDS011;9563;49.240;9.088;2024-01-30T17:26:54;29.13;;;13.57;;
18867;SDS011;9563;49.240;9.088;2024-01-30T17:29:21;21.90;;;12.53;;
18867;SDS011;9563;49.240;9.088;2024-01-30T17:31:48;26.13;;;12.43;;
18867;SDS011;9563;49.240;9.088;2024-01-30T17:34:16;24.47;;;12.97;;
18867;SDS011;9563;49.240;9.088;2024-01-30T17:36:44;26.83;;;13.43;;
18867;SDS011;9563;49.240;9.088;2024-01-30T17:39:11;21.50;;;11.97;;
18867;SDS011;9563;49.240;9.088;2024-01-30T17:41:38;29.23;;;12.53;;
18867;SDS011;9563;49.240;9.088;2024-01-30T17:44:05;18.73;;;11.50;;
18867;SDS011;9563;49.240;9.088;2024-01-30T17:46:32;30.27;;;14.23;;
18867;SDS011;9563;49.240;9.088;2024-01-30T17:48:59;31.37;;;12.93;;
18867;SDS011;9563;49.240;9.088;2024-01-30T17:51:26;21.27;;;12.53;;
18867;SDS011;9563;49.240;9.088;2024-01-30T17:53:54;26.97;;;13.53;;
18867;SDS011;9563;49.240;9.088;2024-01-30T17:56:21;27.83;;;13.13;;
18867;SDS011;9563;49.240;9.088;2024-01-30T17:58:48;27.33;;;13.80;;
18867;SDS011;9563;49.240;9.088;2024-01-30T18:01:16;26.30;;;12.63;;
18867;SDS011;9563;49.240;9.088;2024-01-30T18:03:43;25.23;;;12.17;;
18867;SDS011;9563;49.240;9.088;2024-01-30T18:06:12;19.47;;;11.20;;
18867;SDS011;9563;49.240;9.088;2024-01-30T18:08:40;26.63;;;12.00;;
18867;SDS011;9563;49.240;9.088;2024-01-30T18:11:09;20.80;;;11.50;;
18867;SDS011;9563;49.240;9.088;2024-01-30T18:13:36;22.50;;;12.93;;
18867;SDS011;9563;49.240;9.088;2024-01-30T18:16:03;17.53;;;11.53;;
18867;SDS011;9563;49.240;9.088;2024-01-30T18:18:30;22.00;;;11.37;;
18867;SDS011;9563;49.240;9.088;2024-01-30T18:20:57;26.90;;;11.60;;
18867;SDS011;9563;49.240;9.088;2024-01-30T18:23:24;25.83;;;13.37;;
18867;SDS011;9563;49.240;9.088;2024-01-30T18:25:51;23.03;;;13.00;;
18867;SDS011;9563;49.240;9.088;2024-01-30T18:28:26;27.80;;;13.80;;
18867;SDS011;9563;49.240;9.088;2024-01-30T18:30:53;26.10;;;13.13;;
18867;SDS011;9563;49.240;9.088;2024-01-30T18:33:21;24.97;;;12.83;;
18867;SDS011;9563;49.240;9.088;2024-01-30T18:35:49;25.43;;;13.80;;
18867;SDS011;9563;49.240;9.088;2024-01-30T18:38:15;24.73;;;11.90;;
18867;SDS011;9563;49.240;9.088;2024-01-30T18:40:43;21.63;;;12.07;;
18867;SDS011;9563;49.240;9.088;2024-01-30T18:43:10;26.30;;;13.17;;
18867;SDS011;9563;49.240;9.088;2024-01-30T18:45:38;25.20;;;12.70;;
18867;SDS011;9563;49.240;9.088;2024-01-30T18:48:05;24.47;;;13.17;;
18867;SDS011;9563;49.240;9.088;2024-01-30T18:50:32;33.10;;;14.67;;
18867;SDS011;9563;49.240;9.088;2024-01-30T18:52:59;24.83;;;12.13;;
18867;SDS011;9563;49.240;9.088;2024-01-30T18:55:27;26.63;;;12.37;;
18867;SDS011;9563;49.240;9.088;2024-01-30T18:57:54;25.07;;;12.57;;
18867;SDS011;9563;49.240;9.088;2024-01-30T19:00:21;26.47;;;11.80;;
18867;SDS011;9563;49.240;9.088;2024-01-30T19:02:50;16.70;;;10.50;;
18867;SDS011;9563;49.240;9.088;2024-01-30T19:05:17;15.90;;;10.03;;
18867;SDS011;9563;49.240;9.088;2024-01-30T19:07:43;20.97;;;10.97;;
18867;SDS011;9563;49.240;9.088;2024-01-30T19:10:14;17.50;;;10.27;;
18867;SDS011;9563;49.240;9.088;2024-01-30T19:12:41;21.70;;;11.03;;
18867;SDS011;9563;49.240;9.088;2024-01-30T19:15:10;21.67;;;11.23;;
18867;SDS011;9563;49.240;9.088;2024-01-30T19:17:37;24.40;;;10.97;;
18867;SDS011;9563;49.240;9.088;2024-01-30T19:20:07;19.40;;;11.40;;
18867;SDS011;9563;49.240;9.088;2024-01-30T19:22:35;24.07;;;10.63;;
18867;SDS011;9563;49.240;9.088;2024-01-30T19:25:03;17.10;;;10.97;;
18867;SDS011;9563;49.240;9.088;2024-01-30T19:27:30;22.73;;;11.50;;
18867;SDS011;9563;49.240;9.088;2024-01-30T19:29:58;17.87;;;10.87;;
18867;SDS011;9563;49.240;9.088;2024-01-30T19:32:25;21.03;;;11.67;;
18867;SDS011;9563;49.240;9.088;2024-01-30T19:34:52;19.70;;;11.07;;
18867;SDS011;9563;49.240;9.088;2024-01-30T19:37:21;19.47;;;11.73;;
18867;SDS011;9563;49.240;9.088;2024-01-30T19:39:50;19.07;;;11.43;;
18867;SDS011;9563;49.240;9.088;2024-01-30T19:42:17;18.47;;;10.50;;